Terminal Aerodrome Forecast
Issued by NWS Grand Forks, ND

Home | Current Version | Previous Version | Graphics & Text | Print | Product List | Glossary Off
Versions: 1 2 3 4 5 6 7 8 9 10 11 12 13 14 15 16 17 18

609
FTUS43 KFGF 100525
TAFFAR
TAF
KFAR 100525Z 1006/1106 30005KT P6SM BKN025
      TEMPO 1009/1012 SCT080
     FM101200 VRB06KT P6SM SCT090
     FM101900 11006KT P6SM BKN050
     FM110000 08007KT 5SM -SN OVC010=

USA.gov is the U.S. government's official web portal to all federal, state and local government web resources and services.